Pagrindinis puslapis
METAR-TAF:

METAR-TAF

Oro uostai :

Makao, Kinija

platuma: 22-10N, ilguma: 113-34E, Aukštis: 114 m

Dabartinis oras

Ataskaita buvo paskelbta 34 minutes, ne 01:30 UTC
Vėjas 7 kt iš Pietų
Temperatūra 30°C
Drėgmė 79%
Slėgis 1004 hPa
Matomumas 10 km arba daugiau
Mažai debesys ne aukštis 2200 ft

METAR: VMMC 090130Z 18007KT 9999 FEW022 30/26 Q1004 NOSIG

Laikas: 10:04 (02:04 UTC)

Prognozė

Ataskaita buvo paskelbta 3 valandos ir 4 minutes, ne 23:00 UTC
Prognozė galioja nuo 09 metu 00 UTC su 10 metu 06 UTC
Vėjas 8 kt iš Pietų
Matomumas 10 km arba daugiau
Mažai debesys ne aukštis 1500 ft

TAF: VMMC 082300Z 0900/1006 18008KT 9999 FEW015

Orai ataskaitas ir orų prognozės (METAR, TAF).

turimą stotys yra geltonos ir raudonos taškus žemėlapyje.

Perkelti pele per norėdami pamatyti stoties vardą.

Tada spustelėkite, norėdami matyti oro stebėjimo ir prognozės.

Norėdami pakeisti žemėlapį: spustelėkite ant žalios mygtukų su juodo kryžiaus žemyn,; žalią mygtuką su brūkšneliu, jei norite nutolinti; arba žalių rodyklių gretimoms žemėlapius.


METAR-TAF: